Time;durP1;ratioP1;P1;durP2;ratioP2;P2;SDS_P1;SDS_P2;PMS_P1;PMS_P2;Temp;Humidity;BMP_temperature;BMP_pressure;BME280_temperature;BME280_humidity;BME280_pressure;Samples;Min_cycle;Max_cycle;Signal;HPM_P1;HPM_P2
2022/10/29 00:02:20;;;;;;;7.80;4.10;;;15.10;99.90;;;;;;4953412;28;20484;-73
2022/10/29 00:04:46;;;;;;;9.93;3.80;;;15.10;99.90;;;;;;4952081;28;20414;-73
2022/10/29 00:07:11;;;;;;;8.70;3.60;;;15.10;99.90;;;;;;4953528;28;20425;-73
2022/10/29 00:09:37;;;;;;;9.63;3.50;;;15.00;99.90;;;;;;4953446;29;20421;-73
2022/10/29 00:12:02;;;;;;;8.95;3.85;;;15.00;99.90;;;;;;4951836;28;20422;-73
2022/10/29 00:14:28;;;;;;;6.33;3.40;;;15.00;99.90;;;;;;4949279;28;20421;-73
2022/10/29 00:16:55;;;;;;;6.73;3.90;;;14.90;99.90;;;;;;4951490;29;20451;-73
2022/10/29 00:19:21;;;;;;;7.88;3.97;;;14.90;99.90;;;;;;4952274;28;20410;-73
2022/10/29 00:21:49;;;;;;;7.40;3.30;;;14.90;99.90;;;;;;4954247;28;20481;-73
2022/10/29 00:24:14;;;;;;;7.63;3.30;;;14.90;99.90;;;;;;4953227;28;20776;-73
2022/10/29 00:26:40;;;;;;;6.60;3.53;;;14.90;99.90;;;;;;4951641;28;20414;-73
2022/10/29 00:29:05;;;;;;;8.75;3.88;;;15.00;99.90;;;;;;4952800;28;20538;-73
2022/10/29 00:31:31;;;;;;;7.00;3.40;;;15.00;99.90;;;;;;4952578;28;20433;-72
2022/10/29 00:33:57;;;;;;;6.47;3.20;;;15.00;99.90;;;;;;4950108;29;20405;-73
2022/10/29 00:36:29;;;;;;;5.72;3.15;;;15.00;99.90;;;;;;4951712;28;20406;-73
2022/10/29 00:38:55;;;;;;;8.55;3.60;;;14.90;99.90;;;;;;4952996;29;20985;-73
2022/10/29 00:41:30;;;;;;;7.50;3.70;;;15.00;99.90;;;;;;4953293;29;20401;-73
2022/10/29 00:44:28;;;;;;;7.15;3.53;;;14.90;99.90;;;;;;4952726;28;20469;-72
2022/10/29 00:47:02;;;;;;;7.50;3.38;;;14.80;99.90;;;;;;4951652;28;20456;-72
2022/10/29 00:49:29;;;;;;;5.35;3.30;;;14.80;99.90;;;;;;4951511;28;20916;-72
2022/10/29 00:51:56;;;;;;;6.05;3.40;;;14.70;99.90;;;;;;4951947;28;20421;-73
2022/10/29 00:54:22;;;;;;;6.57;3.35;;;14.70;99.90;;;;;;4951879;28;21093;-73
2022/10/29 00:56:57;;;;;;;9.63;4.15;;;14.80;99.90;;;;;;4952825;28;20560;-73
2022/10/29 00:59:23;;;;;;;7.88;3.10;;;14.90;99.90;;;;;;4953490;28;20394;-73
2022/10/29 01:01:49;;;;;;;7.38;3.30;;;14.90;99.90;;;;;;4953001;28;20507;-73
2022/10/29 01:04:16;;;;;;;4.68;3.40;;;15.00;99.90;;;;;;4951099;29;20414;-73
2022/10/29 01:06:42;;;;;;;11.00;3.70;;;15.10;99.90;;;;;;4951714;28;20784;-73
2022/10/29 01:09:08;;;;;;;6.85;3.33;;;15.00;99.90;;;;;;4951457;28;20417;-73
2022/10/29 01:12:00;;;;;;;8.20;2.95;;;15.00;99.90;;;;;;4952113;28;20409;-73
2022/10/29 01:14:49;;;;;;;7.47;3.40;;;15.00;99.90;;;;;;4953374;28;20777;-74
2022/10/29 01:17:29;;;;;;;7.70;3.30;;;14.90;99.90;;;;;;4951133;28;20405;-74
2022/10/29 01:20:23;;;;;;;5.95;3.00;;;15.00;99.90;;;;;;4952244;28;20394;-74
2022/10/29 01:23:26;;;;;;;7.70;3.30;;;15.00;99.90;;;;;;4951949;29;20880;-73
2022/10/29 01:26:24;;;;;;;6.77;3.43;;;15.20;99.90;;;;;;4950008;29;20500;-74
2022/10/29 01:28:58;;;;;;;6.78;3.10;;;15.10;99.90;;;;;;4945934;29;20417;-74
2022/10/29 01:31:36;;;;;;;6.32;3.40;;;15.10;99.90;;;;;;4952453;29;20424;-74
2022/10/29 01:34:20;;;;;;;7.65;3.40;;;15.10;99.90;;;;;;4951711;29;20492;-74
2022/10/29 01:36:58;;;;;;;7.13;3.45;;;15.20;99.90;;;;;;4951954;28;20409;-74
2022/10/29 01:39:36;;;;;;;9.30;3.70;;;15.20;99.90;;;;;;4950952;28;20412;-73
2022/10/29 01:42:10;;;;;;;6.00;3.28;;;15.30;99.90;;;;;;4950817;28;20785;-74
2022/10/29 01:45:04;;;;;;;7.20;3.07;;;15.40;99.90;;;;;;4933725;29;20392;-74
2022/10/29 01:47:36;;;;;;;8.75;3.35;;;15.30;99.90;;;;;;4958842;28;20471;-74
2022/10/29 01:50:06;;;;;;;6.20;3.00;;;15.30;99.90;;;;;;4951625;28;20408;-73
2022/10/29 01:52:34;;;;;;;6.65;2.60;;;15.20;99.90;;;;;;4950430;29;20530;-73
2022/10/29 01:55:01;;;;;;;6.38;3.85;;;15.10;99.90;;;;;;4952719;28;20422;-73
2022/10/29 01:57:29;;;;;;;5.82;2.70;;;15.00;99.90;;;;;;4950713;28;20421;-74
2022/10/29 02:00:00;;;;;;;10.00;3.25;;;14.90;99.90;;;;;;4950433;29;20409;-74
2022/10/29 02:02:46;;;;;;;7.00;3.50;;;14.90;99.90;;;;;;4951944;28;20892;-73
2022/10/29 02:05:37;;;;;;;10.90;2.90;;;14.90;99.90;;;;;;4936320;29;20913;-73
2022/10/29 02:08:41;;;;;;;13.18;3.72;;;14.90;99.90;;;;;;4951426;28;20410;-73
2022/10/29 02:11:25;;;;;;;7.20;3.60;;;14.90;99.90;;;;;;4943849;29;20418;-73
2022/10/29 02:14:01;;;;;;;4.47;2.63;;;14.80;99.90;;;;;;4951533;28;20463;-73
2022/10/29 02:16:28;;;;;;;7.88;3.22;;;14.80;99.90;;;;;;4950557;28;20410;-73
2022/10/29 02:18:53;;;;;;;9.55;3.50;;;14.90;99.90;;;;;;4950402;28;20418;-74
2022/10/29 02:21:19;;;;;;;7.10;3.08;;;14.90;99.90;;;;;;4950158;28;20508;-73
2022/10/29 02:23:45;;;;;;;6.97;2.97;;;15.00;99.90;;;;;;4950117;28;20421;-74
2022/10/29 02:26:11;;;;;;;3.72;3.15;;;15.00;99.90;;;;;;4950502;29;20417;-74
2022/10/29 02:28:37;;;;;;;8.77;3.10;;;15.00;99.90;;;;;;4952072;28;20404;-73
2022/10/29 02:31:03;;;;;;;7.93;3.47;;;14.90;99.90;;;;;;4949277;28;20513;-73
2022/10/29 02:33:29;;;;;;;5.95;3.40;;;14.90;99.90;;;;;;4949830;28;20420;-73
2022/10/29 02:35:54;;;;;;;4.70;2.90;;;14.90;99.90;;;;;;4951130;28;20472;-73
2022/10/29 02:38:20;;;;;;;11.25;3.38;;;14.80;99.90;;;;;;4949260;28;20413;-73
2022/10/29 02:40:45;;;;;;;6.70;3.30;;;14.70;99.90;;;;;;4950874;29;20424;-74
2022/10/29 02:43:11;;;;;;;8.57;3.77;;;14.60;99.90;;;;;;4951183;28;20410;-73
2022/10/29 02:45:36;;;;;;;6.30;3.20;;;14.70;99.90;;;;;;4951485;28;20401;-74
2022/10/29 02:48:02;;;;;;;5.33;3.43;;;14.60;99.90;;;;;;4949931;28;20788;-74
2022/10/29 02:50:28;;;;;;;6.10;2.90;;;14.60;99.90;;;;;;4949977;28;20492;-73
2022/10/29 02:52:53;;;;;;;4.87;3.27;;;14.60;99.90;;;;;;4951362;28;20402;-73
2022/10/29 02:55:19;;;;;;;8.80;3.67;;;14.60;99.90;;;;;;4951685;28;20420;-73
2022/10/29 02:57:45;;;;;;;6.77;3.90;;;14.60;99.90;;;;;;4951730;29;20510;-73
2022/10/29 03:00:11;;;;;;;5.90;3.38;;;14.60;99.90;;;;;;4949997;28;20437;-73
2022/10/29 03:02:37;;;;;;;4.40;2.95;;;14.60;99.90;;;;;;4949911;28;20476;-74
2022/10/29 03:05:03;;;;;;;6.95;3.40;;;14.50;99.90;;;;;;4950795;28;21019;-74
2022/10/29 03:07:29;;;;;;;10.13;3.65;;;14.60;99.90;;;;;;4951498;28;20816;-74
2022/10/29 03:09:54;;;;;;;6.50;3.40;;;14.50;99.90;;;;;;4950891;29;20414;-73
2022/10/29 03:12:20;;;;;;;7.07;3.30;;;14.50;99.90;;;;;;4949374;28;20824;-73
2022/10/29 03:14:45;;;;;;;6.82;3.45;;;14.40;99.90;;;;;;4949954;28;20899;-74
2022/10/29 03:17:11;;;;;;;7.27;2.87;;;14.40;99.90;;;;;;4951523;28;20441;-73
2022/10/29 03:19:36;;;;;;;5.77;3.83;;;14.40;99.90;;;;;;4954254;28;20409;-73
2022/10/29 03:22:02;;;;;;;8.38;3.33;;;14.50;99.90;;;;;;4954276;28;20938;-73
2022/10/29 03:24:27;;;;;;;6.07;3.08;;;14.50;99.90;;;;;;4953078;28;20476;-74
2022/10/29 03:26:53;;;;;;;6.90;3.60;;;14.50;99.90;;;;;;4953653;28;20425;-73
2022/10/29 03:29:18;;;;;;;5.07;2.83;;;14.60;99.90;;;;;;4954200;28;20461;-73
2022/10/29 03:31:44;;;;;;;6.75;3.67;;;14.50;99.90;;;;;;4953297;28;20549;-73
2022/10/29 03:34:09;;;;;;;5.27;3.17;;;14.50;99.90;;;;;;4953894;29;21029;-73
2022/10/29 03:36:35;;;;;;;7.85;3.90;;;14.50;99.90;;;;;;4953149;28;20427;-74
2022/10/29 03:39:01;;;;;;;7.20;3.28;;;14.50;99.90;;;;;;4954314;29;20757;-73
2022/10/29 03:41:26;;;;;;;6.30;3.27;;;14.50;99.90;;;;;;4953927;29;20410;-72
2022/10/29 03:43:52;;;;;;;5.53;3.30;;;14.50;99.90;;;;;;4953986;28;20421;-74
2022/10/29 03:46:17;;;;;;;7.72;3.22;;;14.50;99.90;;;;;;4950984;29;20437;-73
2022/10/29 03:48:43;;;;;;;6.03;3.70;;;14.50;99.90;;;;;;4952738;28;20413;-74
2022/10/29 03:51:09;;;;;;;6.27;3.00;;;14.40;99.90;;;;;;4952689;28;20402;-74
2022/10/29 03:53:36;;;;;;;6.85;3.30;;;14.30;99.90;;;;;;4952176;28;20478;-74
2022/10/29 03:56:02;;;;;;;5.80;3.40;;;14.30;99.90;;;;;;4953130;28;20410;-74
2022/10/29 03:58:28;;;;;;;6.38;3.45;;;14.30;99.90;;;;;;4954053;28;20460;-73
2022/10/29 04:01:04;;;;;;;9.30;3.20;;;14.30;99.90;;;;;;4953842;29;20402;-73
2022/10/29 04:03:32;;;;;;;7.53;3.65;;;14.20;99.90;;;;;;4947701;29;20429;-74
2022/10/29 04:05:59;;;;;;;6.67;3.17;;;14.30;99.90;;;;;;4953096;28;20493;-73
2022/10/29 04:08:25;;;;;;;7.22;3.38;;;14.30;99.90;;;;;;4952727;28;20484;-73
2022/10/29 04:10:51;;;;;;;5.68;3.17;;;14.20;99.90;;;;;;4954456;28;20394;-73
2022/10/29 04:13:18;;;;;;;6.13;3.40;;;14.10;99.90;;;;;;4951554;28;20778;-73
2022/10/29 04:15:43;;;;;;;8.70;3.40;;;14.10;99.90;;;;;;4951096;28;20431;-74
2022/10/29 04:18:10;;;;;;;5.22;3.88;;;14.20;99.90;;;;;;4952377;28;20788;-74
2022/10/29 04:20:36;;;;;;;5.63;3.63;;;14.20;99.90;;;;;;4952758;28;20412;-72
2022/10/29 04:23:02;;;;;;;9.10;3.10;;;14.20;99.90;;;;;;4966969;28;20417;-74
2022/10/29 04:25:28;;;;;;;5.03;3.50;;;14.10;99.90;;;;;;4952249;28;20409;-73
2022/10/29 04:27:54;;;;;;;7.33;3.30;;;14.20;99.90;;;;;;4968754;28;20402;-74
2022/10/29 04:30:21;;;;;;;7.13;3.70;;;14.10;99.90;;;;;;4953939;28;20436;-72
2022/10/29 04:32:46;;;;;;;5.35;3.42;;;14.20;99.90;;;;;;4952578;28;20428;-73
2022/10/29 04:35:12;;;;;;;6.38;3.33;;;14.10;99.90;;;;;;4952323;29;20417;-73
2022/10/29 04:37:37;;;;;;;8.20;4.00;;;14.00;99.90;;;;;;4952552;28;20508;-73
2022/10/29 04:40:03;;;;;;;6.80;3.23;;;14.10;99.90;;;;;;4953055;28;20516;-73
2022/10/29 04:42:34;;;;;;;7.93;3.40;;;14.00;99.90;;;;;;4953586;28;20777;-74
2022/10/29 04:44:59;;;;;;;8.73;4.07;;;14.10;99.90;;;;;;4952498;28;20409;-73
2022/10/29 04:47:25;;;;;;;4.67;3.00;;;14.00;99.90;;;;;;4952154;28;20832;-73
2022/10/29 04:49:50;;;;;;;8.03;3.50;;;14.00;99.90;;;;;;4949697;28;20522;-73
2022/10/29 04:52:16;;;;;;;9.82;3.40;;;14.00;99.90;;;;;;4948459;29;20421;-73
2022/10/29 04:54:41;;;;;;;6.07;3.30;;;13.90;99.90;;;;;;4952131;28;20464;-74
2022/10/29 04:57:07;;;;;;;6.73;3.90;;;13.90;99.90;;;;;;4952301;29;20489;-73
2022/10/29 04:59:32;;;;;;;5.18;3.53;;;13.90;99.90;;;;;;4952637;28;20485;-74
2022/10/29 05:01:58;;;;;;;5.17;3.30;;;13.90;99.90;;;;;;4953465;28;20442;-74
2022/10/29 05:04:24;;;;;;;10.75;3.80;;;14.00;99.90;;;;;;4952002;29;20405;-74
2022/10/29 05:06:52;;;;;;;6.37;3.63;;;13.90;99.90;;;;;;4952829;29;20476;-74
2022/10/29 05:09:17;;;;;;;8.75;3.25;;;13.90;99.90;;;;;;4952749;28;20440;-74
2022/10/29 05:11:43;;;;;;;7.93;3.03;;;13.80;99.90;;;;;;4950044;28;20912;-74
2022/10/29 05:14:08;;;;;;;8.30;3.70;;;13.80;99.90;;;;;;4951336;28;20493;-74
2022/10/29 05:16:34;;;;;;;6.60;2.63;;;13.80;99.90;;;;;;4951770;29;20493;-74
2022/10/29 05:18:59;;;;;;;9.70;3.10;;;13.80;99.90;;;;;;4952470;29;20410;-74
2022/10/29 05:21:25;;;;;;;7.40;3.30;;;13.90;99.90;;;;;;4950253;28;20420;-75
2022/10/29 05:23:50;;;;;;;9.45;3.85;;;13.80;99.90;;;;;;4949146;28;20410;-74
2022/10/29 05:26:16;;;;;;;11.17;4.00;;;13.70;99.90;;;;;;4951847;28;20457;-74
2022/10/29 05:28:41;;;;;;;7.40;3.60;;;13.70;99.90;;;;;;4974299;23;20465;-73
2022/10/29 05:31:07;;;;;;;9.52;3.90;;;13.70;99.90;;;;;;4951305;29;20408;-74
2022/10/29 05:33:32;;;;;;;8.40;3.60;;;13.70;99.90;;;;;;4952852;29;20386;-71
2022/10/29 05:35:59;;;;;;;6.77;3.67;;;13.70;99.90;;;;;;4953318;29;20421;-71
2022/10/29 05:38:25;;;;;;;11.97;3.50;;;13.70;99.90;;;;;;4953008;28;20895;-74
2022/10/29 05:40:51;;;;;;;7.87;4.00;;;13.70;99.90;;;;;;4952757;28;20397;-72
2022/10/29 05:43:19;;;;;;;8.27;3.30;;;13.70;99.90;;;;;;4952531;29;20394;-72
2022/10/29 05:45:44;;;;;;;6.32;3.35;;;13.70;99.90;;;;;;4950135;28;20821;-74
2022/10/29 05:48:11;;;;;;;6.50;3.20;;;13.70;99.90;;;;;;4951798;28;20578;-75
2022/10/29 05:50:37;;;;;;;9.40;3.88;;;13.70;99.90;;;;;;4952416;28;20413;-74
2022/10/29 05:53:04;;;;;;;8.40;3.75;;;13.70;99.90;;;;;;4952246;28;20414;-71
2022/10/29 05:55:32;;;;;;;9.95;4.05;;;13.60;99.90;;;;;;4981750;28;20416;-74
2022/10/29 05:57:59;;;;;;;8.77;4.07;;;13.70;99.90;;;;;;4955860;28;20468;-74
2022/10/29 06:00:26;;;;;;;4.50;2.88;;;13.70;99.90;;;;;;4952739;28;20800;-72
2022/10/29 06:02:52;;;;;;;8.45;3.45;;;13.60;99.90;;;;;;4953666;28;20429;-72
2022/10/29 06:05:18;;;;;;;7.70;3.57;;;13.60;99.90;;;;;;4956174;28;20455;-72
2022/10/29 06:07:44;;;;;;;8.40;3.40;;;13.70;99.90;;;;;;4960036;28;20420;-72
2022/10/29 06:10:09;;;;;;;5.05;3.20;;;13.70;99.90;;;;;;4953279;28;20734;-72
2022/10/29 06:12:35;;;;;;;8.77;3.80;;;13.70;99.90;;;;;;4952722;28;20402;-73
2022/10/29 06:15:00;;;;;;;9.00;3.80;;;13.70;99.90;;;;;;4952159;28;20472;-73
2022/10/29 06:17:26;;;;;;;6.77;3.30;;;13.70;99.90;;;;;;4950926;28;20481;-72
2022/10/29 06:19:52;;;;;;;5.30;3.28;;;13.70;99.90;;;;;;4952359;28;20398;-72
2022/10/29 06:22:17;;;;;;;7.32;3.63;;;13.60;99.90;;;;;;4954462;28;20862;-72
2022/10/29 06:24:43;;;;;;;4.93;3.55;;;13.60;99.90;;;;;;4951028;28;20979;-71
2022/10/29 06:27:08;;;;;;;3.83;2.90;;;13.60;99.90;;;;;;4960642;28;20405;-73
2022/10/29 06:29:34;;;;;;;6.47;3.40;;;13.60;99.90;;;;;;4952995;28;20886;-72
2022/10/29 06:31:59;;;;;;;8.38;3.85;;;13.70;99.90;;;;;;4952146;28;20982;-72
2022/10/29 06:34:25;;;;;;;7.80;3.63;;;13.60;99.90;;;;;;4952899;28;20517;-73
2022/10/29 06:36:50;;;;;;;7.23;3.70;;;13.60;99.90;;;;;;4951828;28;20428;-73
2022/10/29 06:39:16;;;;;;;6.85;3.10;;;13.70;99.90;;;;;;4954603;28;20904;-73
2022/10/29 06:41:41;;;;;;;6.67;3.13;;;13.70;99.90;;;;;;4950742;28;20406;-73
2022/10/29 06:44:07;;;;;;;9.07;3.43;;;13.70;99.90;;;;;;4954762;28;20831;-73
2022/10/29 06:46:35;;;;;;;7.40;3.13;;;13.60;99.90;;;;;;4949926;28;20405;-72
2022/10/29 06:49:01;;;;;;;8.82;3.28;;;13.60;99.90;;;;;;4951495;28;20494;-73
2022/10/29 06:51:27;;;;;;;6.40;3.50;;;13.60;99.90;;;;;;4951957;28;20416;-74
2022/10/29 06:53:53;;;;;;;6.10;3.58;;;13.70;99.90;;;;;;4952525;28;20413;-73
2022/10/29 06:56:19;;;;;;;7.85;3.40;;;13.80;99.90;;;;;;4954515;28;20418;-73
2022/10/29 06:58:45;;;;;;;5.70;3.43;;;13.90;99.90;;;;;;4958268;28;20425;-73
2022/10/29 07:01:11;;;;;;;10.90;3.87;;;13.80;99.90;;;;;;4954368;28;20495;-73
2022/10/29 07:03:36;;;;;;;10.37;3.77;;;13.70;99.90;;;;;;4957293;28;20413;-73
2022/10/29 07:06:02;;;;;;;6.20;3.35;;;13.70;99.90;;;;;;4966123;28;20420;-73
2022/10/29 07:08:29;;;;;;;8.23;3.47;;;13.80;99.90;;;;;;4955044;28;20420;-74
2022/10/29 07:10:55;;;;;;;8.48;3.58;;;13.80;99.90;;;;;;4950069;28;20780;-73
2022/10/29 07:13:20;;;;;;;9.48;3.78;;;13.90;99.90;;;;;;4954699;28;20416;-72
2022/10/29 07:15:46;;;;;;;5.20;3.10;;;13.90;99.90;;;;;;4956717;28;20445;-73
2022/10/29 07:18:12;;;;;;;6.72;3.90;;;13.90;99.90;;;;;;4958846;28;20956;-73
2022/10/29 07:20:40;;;;;;;4.43;3.30;;;13.90;99.90;;;;;;4954985;28;20912;-73
2022/10/29 07:23:06;;;;;;;9.02;3.55;;;13.90;99.90;;;;;;4955124;28;20469;-73
2022/10/29 07:25:32;;;;;;;9.80;3.85;;;14.00;99.90;;;;;;4959172;28;20844;-72
2022/10/29 07:28:15;;;;;;;7.97;3.33;;;14.00;99.90;;;;;;4955509;28;20391;-72
2022/10/29 07:30:42;;;;;;;4.70;2.80;;;14.20;99.90;;;;;;4968283;28;20394;-71
2022/10/29 07:33:07;;;;;;;4.82;3.38;;;14.20;99.90;;;;;;4957455;28;20402;-72
2022/10/29 07:35:34;;;;;;;5.30;3.43;;;14.30;99.90;;;;;;4955219;29;20445;-72
2022/10/29 07:38:01;;;;;;;7.50;4.15;;;14.30;99.90;;;;;;4953893;29;20401;-72
2022/10/29 07:40:27;;;;;;;5.80;3.38;;;14.40;99.90;;;;;;4952092;28;20414;-72
2022/10/29 07:42:53;;;;;;;8.82;3.80;;;14.50;99.90;;;;;;4953459;28;20479;-72
2022/10/29 07:45:19;;;;;;;7.63;3.85;;;14.60;99.90;;;;;;4954371;28;20464;-72
2022/10/29 07:47:45;;;;;;;6.47;3.40;;;14.70;99.90;;;;;;4953653;28;20413;-72
2022/10/29 07:50:11;;;;;;;7.60;3.40;;;14.70;99.90;;;;;;4954185;28;20599;-73
2022/10/29 07:52:38;;;;;;;8.48;3.28;;;14.70;99.90;;;;;;4954691;28;20441;-72
2022/10/29 07:55:04;;;;;;;7.82;3.60;;;14.80;99.90;;;;;;4953133;28;20520;-71
2022/10/29 07:57:29;;;;;;;8.82;3.67;;;15.00;99.90;;;;;;4962007;28;20433;-74
2022/10/29 07:59:55;;;;;;;7.50;4.10;;;15.10;99.90;;;;;;4957833;28;20402;-71
2022/10/29 08:02:20;;;;;;;6.20;3.87;;;15.20;99.90;;;;;;4954342;28;20408;-70
2022/10/29 08:04:46;;;;;;;9.10;3.50;;;15.20;99.90;;;;;;4953600;28;20406;-71
2022/10/29 08:07:11;;;;;;;7.50;3.30;;;15.20;99.90;;;;;;4954384;28;20400;-72
2022/10/29 08:09:37;;;;;;;6.60;3.50;;;15.20;99.90;;;;;;4952790;28;20942;-72
2022/10/29 08:12:05;;;;;;;5.30;3.50;;;15.40;99.90;;;;;;4956294;28;20498;-71
2022/10/29 08:14:31;;;;;;;7.73;3.20;;;15.40;99.90;;;;;;4948865;29;20420;-72
2022/10/29 08:16:56;;;;;;;6.20;3.00;;;15.50;99.90;;;;;;4953405;28;20413;-71
2022/10/29 08:19:23;;;;;;;9.40;3.80;;;15.60;99.90;;;;;;4957768;28;20416;-72
2022/10/29 08:21:49;;;;;;;5.55;3.20;;;15.80;99.90;;;;;;4953257;28;20899;-71
2022/10/29 08:24:15;;;;;;;6.73;4.00;;;15.90;99.90;;;;;;4946385;28;20413;-72
2022/10/29 08:26:41;;;;;;;6.55;4.10;;;15.90;99.90;;;;;;4961680;28;21026;-72
2022/10/29 08:29:06;;;;;;;5.30;3.35;;;16.10;99.90;;;;;;4954262;28;20446;-71
2022/10/29 08:31:32;;;;;;;7.50;4.00;;;16.20;99.90;;;;;;4955190;28;20396;-72
2022/10/29 08:33:58;;;;;;;9.37;4.60;;;16.30;99.90;;;;;;4959991;28;20525;-72
2022/10/29 08:36:23;;;;;;;7.57;4.55;;;16.40;99.90;;;;;;4956476;28;20425;-72
2022/10/29 08:38:49;;;;;;;10.45;5.32;;;16.60;99.90;;;;;;4946239;28;20418;-72
2022/10/29 08:41:45;;;;;;;9.57;3.73;;;16.70;99.90;;;;;;4951849;29;20386;-72
2022/10/29 08:44:24;;;;;;;7.50;3.47;;;16.90;99.90;;;;;;4946964;28;20431;-72
2022/10/29 08:47:07;;;;;;;11.50;3.50;;;17.00;99.90;;;;;;4951488;29;20912;-72
2022/10/29 08:50:19;;;;;;;8.45;4.43;;;17.10;99.90;;;;;;4945912;28;20963;-73
2022/10/29 08:52:46;;;;;;;6.55;3.22;;;17.30;99.90;;;;;;4932203;29;20470;-72
2022/10/29 08:55:34;;;;;;;7.73;3.70;;;17.40;99.90;;;;;;4929917;29;20568;-71
2022/10/29 08:58:12;;;;;;;5.93;3.45;;;17.50;99.90;;;;;;4951161;28;20404;-72
2022/10/29 09:00:40;;;;;;;6.38;3.72;;;17.60;99.90;;;;;;4947003;28;21161;-72
2022/10/29 09:03:11;;;;;;;9.75;3.50;;;17.70;99.90;;;;;;4955641;28;20398;-72
2022/10/29 09:06:06;;;;;;;7.40;3.20;;;17.90;99.90;;;;;;4954146;28;20395;-72
2022/10/29 09:08:41;;;;;;;9.45;3.30;;;17.90;99.90;;;;;;4955746;28;21066;-72
2022/10/29 09:11:37;;;;;;;5.57;3.17;;;18.10;99.90;;;;;;4972948;28;20431;-72
2022/10/29 09:14:30;;;;;;;10.63;4.10;;;18.20;99.90;;;;;;4966879;28;20477;-72
2022/10/29 09:17:27;;;;;;;10.43;3.40;;;18.30;99.90;;;;;;4953295;28;20386;-72
2022/10/29 09:20:25;;;;;;;6.90;3.60;;;18.40;99.90;;;;;;4953320;28;20393;-71
2022/10/29 09:22:53;;;;;;;7.63;4.00;;;18.70;99.90;;;;;;4957293;28;20744;-72
2022/10/29 09:25:30;;;;;;;8.82;4.38;;;18.80;99.90;;;;;;4972623;28;20794;-73
2022/10/29 09:28:22;;;;;;;11.10;5.38;;;18.70;99.90;;;;;;4970842;28;20393;-72
2022/10/29 09:31:01;;;;;;;7.70;4.63;;;18.70;99.90;;;;;;4951626;28;20422;-73
2022/10/29 09:33:27;;;;;;;10.80;5.22;;;18.70;99.90;;;;;;4953434;28;20456;-73
2022/10/29 09:35:56;;;;;;;10.07;5.22;;;18.70;99.90;;;;;;4955329;28;20470;-72
2022/10/29 09:38:44;;;;;;;12.38;5.53;;;18.50;99.90;;;;;;4950485;29;20909;-72
2022/10/29 09:41:11;;;;;;;10.85;4.80;;;18.70;99.90;;;;;;4951412;28;20805;-72
2022/10/29 09:43:55;;;;;;;8.15;5.30;;;18.60;99.90;;;;;;4946671;29;20406;-72
2022/10/29 09:46:43;;;;;;;10.32;5.28;;;18.80;99.90;;;;;;4950321;29;20437;-72
2022/10/29 09:49:31;;;;;;;8.85;5.20;;;18.90;99.90;;;;;;4967701;28;20708;-73
2022/10/29 09:52:01;;;;;;;8.32;5.50;;;18.90;99.90;;;;;;4971504;28;20877;-73
2022/10/29 09:54:29;;;;;;;12.82;5.85;;;18.80;99.90;;;;;;4950855;28;20770;-72
2022/10/29 09:56:57;;;;;;;7.70;5.10;;;18.80;99.90;;;;;;4950229;28;20433;-72
2022/10/29 09:59:30;;;;;;;13.65;5.68;;;18.80;99.90;;;;;;4956029;28;20904;-74
2022/10/29 10:01:57;;;;;;;9.85;5.90;;;18.90;99.90;;;;;;4953458;28;20412;-73
2022/10/29 10:04:29;;;;;;;7.47;5.63;;;18.80;99.90;;;;;;4952449;28;20416;-72
2022/10/29 10:07:10;;;;;;;9.30;5.40;;;18.80;99.90;;;;;;4951968;28;20990;-74
2022/10/29 10:09:54;;;;;;;7.33;5.20;;;18.90;99.90;;;;;;4958440;28;20820;-73
2022/10/29 10:12:23;;;;;;;12.32;6.15;;;19.00;99.90;;;;;;4952510;28;20484;-72
2022/10/29 10:15:00;;;;;;;7.35;5.10;;;19.20;99.90;;;;;;4964574;28;20412;-71
2022/10/29 10:17:26;;;;;;;12.60;5.50;;;19.30;99.90;;;;;;4971275;28;20392;-71
2022/10/29 10:19:51;;;;;;;8.13;4.80;;;19.30;99.90;;;;;;4958744;28;20447;-71
2022/10/29 10:22:23;;;;;;;10.77;5.00;;;19.40;99.90;;;;;;4948769;29;20422;-72
2022/10/29 10:24:49;;;;;;;9.37;5.20;;;19.60;99.90;;;;;;4947889;28;20522;-71
2022/10/29 10:27:30;;;;;;;10.35;4.80;;;19.70;99.90;;;;;;4950153;28;20412;-72
2022/10/29 10:30:10;;;;;;;6.85;4.78;;;19.70;99.90;;;;;;4951921;28;20772;-71
2022/10/29 10:32:36;;;;;;;8.25;4.68;;;19.70;99.90;;;;;;4949431;28;20947;-70
2022/10/29 10:35:01;;;;;;;8.60;5.22;;;19.90;99.90;;;;;;4949332;28;20425;-71
2022/10/29 10:37:32;;;;;;;8.40;5.37;;;19.90;99.90;;;;;;4951700;28;20416;-71
2022/10/29 10:40:02;;;;;;;8.45;5.50;;;20.00;99.90;;;;;;4982176;28;20430;-71
2022/10/29 10:42:35;;;;;;;7.60;5.10;;;20.20;99.90;;;;;;4951774;28;20386;-72
2022/10/29 10:45:25;;;;;;;9.10;5.10;;;20.30;99.90;;;;;;4951165;28;20876;-72
2022/10/29 10:47:56;;;;;;;7.60;4.67;;;20.50;99.90;;;;;;4956422;28;20387;-71
2022/10/29 10:50:30;;;;;;;9.50;4.80;;;20.70;99.90;;;;;;4957656;28;20401;-71
2022/10/29 10:53:15;;;;;;;7.03;4.80;;;20.90;99.90;;;;;;4950555;28;20425;-71
2022/10/29 10:55:52;;;;;;;10.43;5.43;;;21.20;99.90;;;;;;4950524;28;20418;-72
2022/10/29 10:58:39;;;;;;;7.03;4.40;;;21.50;99.90;;;;;;4951596;28;20477;-71
2022/10/29 11:01:18;;;;;;;9.30;4.55;;;21.80;99.90;;;;;;4955060;28;20439;-71
2022/10/29 11:03:55;;;;;;;10.13;4.70;;;22.30;99.90;;;;;;4950810;28;20469;-70
2022/10/29 11:06:36;;;;;;;10.32;5.10;;;23.00;98.10;;;;;;4962413;28;20387;-71
2022/10/29 11:09:17;;;;;;;8.65;4.75;;;23.80;95.60;;;;;;4951611;28;20389;-71
2022/10/29 11:11:58;;;;;;;7.97;4.50;;;24.00;94.00;;;;;;4951860;28;20737;-71
2022/10/29 11:14:33;;;;;;;7.47;5.33;;;24.50;92.60;;;;;;4951154;28;20406;-71
2022/10/29 11:17:03;;;;;;;8.18;5.32;;;24.70;91.40;;;;;;4946522;28;20411;-72
2022/10/29 11:19:44;;;;;;;10.50;4.90;;;24.70;91.90;;;;;;4950135;28;20398;-72
2022/10/29 11:22:19;;;;;;;8.93;4.93;;;24.40;92.50;;;;;;4950551;28;20409;-72
2022/10/29 11:24:57;;;;;;;8.20;4.20;;;25.40;90.40;;;;;;4950610;28;20416;-72
2022/10/29 11:27:32;;;;;;;12.60;5.88;;;25.80;87.10;;;;;;4934051;29;20421;-72
2022/10/29 11:30:04;;;;;;;9.65;5.18;;;25.40;90.40;;;;;;4950892;28;20417;-71
2022/10/29 11:32:54;;;;;;;8.05;4.40;;;24.80;89.90;;;;;;4951202;29;20805;-72
2022/10/29 11:35:46;;;;;;;9.27;5.20;;;24.80;92.40;;;;;;4981745;23;20964;-72
2022/10/29 11:38:25;;;;;;;9.85;4.60;;;25.10;91.60;;;;;;4967799;28;20984;-70
2022/10/29 11:41:13;;;;;;;7.95;4.63;;;25.20;91.20;;;;;;4974082;28;20416;-70
2022/10/29 11:43:38;;;;;;;7.35;4.00;;;25.20;92.80;;;;;;4976044;28;20751;-70
2022/10/29 11:46:10;;;;;;;7.63;3.92;;;25.50;93.10;;;;;;4986016;28;20411;-70
2022/10/29 11:49:01;;;;;;;12.85;6.50;;;25.90;90.80;;;;;;4973889;28;20890;-70
2022/10/29 11:51:41;;;;;;;8.00;5.00;;;26.20;91.00;;;;;;4953438;29;20398;-75
2022/10/29 11:54:37;;;;;;;7.20;4.20;;;26.60;87.80;;;;;;4962508;28;20411;-75
2022/10/29 11:57:29;;;;;;;9.25;4.00;;;26.60;90.30;;;;;;4972824;28;20384;-77
2022/10/29 12:00:15;;;;;;;7.63;3.67;;;26.60;89.20;;;;;;4970022;28;20504;-76
2022/10/29 12:02:58;;;;;;;6.57;4.07;;;27.40;91.00;;;;;;4971137;28;20986;-76
2022/10/29 12:05:32;;;;;;;7.70;4.70;;;27.10;88.50;;;;;;4973575;28;20830;-75
2022/10/29 12:08:17;;;;;;;6.47;4.00;;;27.10;89.70;;;;;;4972715;28;20474;-75
2022/10/29 12:11:08;;;;;;;7.20;4.50;;;27.20;91.60;;;;;;4972694;28;20404;-76
2022/10/29 12:14:00;;;;;;;8.23;4.20;;;27.40;90.10;;;;;;4965641;28;20395;-75
2022/10/29 12:17:08;;;;;;;6.93;4.00;;;27.80;89.90;;;;;;4972719;28;20449;-75
2022/10/29 12:19:37;;;;;;;4.80;4.25;;;27.70;90.20;;;;;;4968860;28;20479;-75
2022/10/29 12:22:21;;;;;;;7.20;3.50;;;28.30;85.80;;;;;;4964750;28;20468;-75
2022/10/29 12:25:17;;;;;;;9.90;4.63;;;28.30;83.60;;;;;;4970922;28;20778;-75
2022/10/29 12:28:10;;;;;;;7.13;3.53;;;28.80;82.70;;;;;;4968594;28;20405;-76
2022/10/29 12:31:01;;;;;;;9.60;3.95;;;28.40;83.50;;;;;;4966385;28;20400;-76
2022/10/29 12:33:47;;;;;;;6.78;3.50;;;27.90;84.50;;;;;;4972558;28;20399;-77
2022/10/29 12:36:34;;;;;;;10.27;4.50;;;28.40;81.30;;;;;;4982540;28;20823;-76
2022/10/29 12:39:01;;;;;;;6.00;3.50;;;28.30;85.20;;;;;;4971994;28;20483;-76
2022/10/29 12:41:44;;;;;;;8.00;3.40;;;28.50;79.70;;;;;;4972896;28;20388;-76
2022/10/29 12:44:21;;;;;;;4.85;2.90;;;29.20;76.70;;;;;;4972846;28;20871;-76
2022/10/29 12:47:04;;;;;;;6.53;3.40;;;29.00;71.50;;;;;;4973019;28;20844;-76
2022/10/29 12:50:02;;;;;;;7.17;3.00;;;29.40;70.50;;;;;;4972105;28;20396;-76
2022/10/29 12:52:39;;;;;;;6.83;3.40;;;30.50;69.50;;;;;;4972911;28;20392;-76
2022/10/29 12:55:06;;;;;;;6.25;3.47;;;30.20;67.70;;;;;;4971071;28;20420;-75
2022/10/29 12:57:33;;;;;;;9.70;3.87;;;29.80;68.20;;;;;;4968719;28;20439;-77
2022/10/29 13:00:24;;;;;;;9.00;4.60;;;29.50;68.90;;;;;;4971419;28;20480;-75
2022/10/29 13:02:51;;;;;;;7.10;3.70;;;28.90;72.30;;;;;;4969798;28;20979;-75
2022/10/29 13:05:18;;;;;;;6.63;4.40;;;28.60;74.00;;;;;;4972727;28;20886;-75
2022/10/29 13:07:46;;;;;;;6.30;4.65;;;27.70;75.50;;;;;;4971218;28;20890;-75
2022/10/29 13:10:21;;;;;;;8.50;4.38;;;27.90;78.00;;;;;;4972288;28;20472;-74